createdAt,value
2023-05-05T00:01:40.603Z,98881.91
2023-05-05T00:04:19.111Z,98879.00
2023-05-05T00:06:56.304Z,98893.78
2023-05-05T00:09:27.663Z,98887.63
2023-05-05T00:11:58.286Z,98880.94
2023-05-05T00:14:28.115Z,98899.06
2023-05-05T00:16:57.463Z,98887.94
2023-05-05T00:19:28.267Z,98894.50
2023-05-05T00:22:04.176Z,98894.06
2023-05-05T00:24:43.262Z,98885.91
2023-05-05T00:27:14.853Z,98887.53
2023-05-05T00:29:48.498Z,98892.78
2023-05-05T00:32:17.859Z,98897.72
2023-05-05T00:34:46.862Z,98850.38
2023-05-05T00:37:20.803Z,98885.88
2023-05-05T00:39:59.024Z,98876.31
2023-05-05T00:42:41.647Z,98873.84
2023-05-05T00:45:14.881Z,98819.06
2023-05-05T00:48:03.810Z,98881.94
2023-05-05T00:50:43.516Z,98838.34
2023-05-05T00:53:13.458Z,98876.16
2023-05-05T00:55:44.325Z,98876.28
2023-05-05T01:00:59.516Z,98865.97
2023-05-05T01:03:32.043Z,98866.75
2023-05-05T01:06:17.933Z,98862.34
2023-05-05T01:09:22.896Z,98862.13
2023-05-05T01:12:31.748Z,98862.06
2023-05-05T01:15:20.994Z,98851.16
2023-05-05T01:18:32.820Z,98860.03
2023-05-05T01:21:31.784Z,98852.94
2023-05-05T01:24:16.075Z,98859.91
2023-05-05T01:27:13.471Z,98859.91
2023-05-05T01:30:01.184Z,98855.69
2023-05-05T01:32:32.791Z,98859.94
2023-05-05T01:35:34.308Z,98853.50
2023-05-05T01:38:44.470Z,98852.94
2023-05-05T01:41:26.124Z,98850.66
2023-05-05T01:44:02.713Z,98843.56
2023-05-05T01:46:36.983Z,98844.09
2023-05-05T01:49:06.004Z,98841.09
2023-05-05T01:51:46.314Z,98843.19
2023-05-05T01:54:27.405Z,98842.50
2023-05-05T01:57:06.462Z,98845.53
2023-05-05T01:59:40.017Z,98850.75
2023-05-05T02:05:09.392Z,98851.50
2023-05-05T02:07:47.020Z,98847.63
2023-05-05T02:10:19.078Z,98836.16
2023-05-05T02:12:51.613Z,98850.63
2023-05-05T02:15:19.873Z,98850.25
2023-05-05T02:17:55.725Z,98853.38
2023-05-05T02:20:25.651Z,98845.97
2023-05-05T02:22:54.426Z,98823.38
2023-05-05T02:25:29.950Z,98840.88
2023-05-05T02:28:21.118Z,98839.09
2023-05-05T02:31:01.048Z,98843.59
2023-05-05T02:33:38.295Z,98834.22
2023-05-05T02:36:31.796Z,98835.03
2023-05-05T02:39:19.461Z,98810.03
2023-05-05T02:41:57.373Z,98838.28
2023-05-05T02:44:36.625Z,98824.84
2023-05-05T02:47:18.259Z,98825.41
2023-05-05T02:49:49.114Z,98815.16
2023-05-05T02:52:23.060Z,98827.91
2023-05-05T02:54:53.928Z,98829.53
2023-05-05T02:57:39.108Z,98826.00
2023-05-05T03:00:45.332Z,98802.88
2023-05-05T03:03:42.105Z,98820.31
2023-05-05T03:06:25.710Z,98818.06
2023-05-05T03:09:35.530Z,98819.47
2023-05-05T03:12:21.797Z,98822.47
2023-05-05T03:15:21.816Z,98834.00
2023-05-05T03:17:51.602Z,98827.66
2023-05-05T03:20:23.105Z,98831.78
2023-05-05T03:23:05.037Z,98820.97
2023-05-05T03:25:47.645Z,98825.38
2023-05-05T03:28:27.839Z,98819.41
2023-05-05T03:31:04.526Z,98818.03
2023-05-05T03:33:38.936Z,98809.50
2023-05-05T03:36:22.011Z,98789.44
2023-05-05T03:38:54.313Z,98826.53
2023-05-05T03:41:30.546Z,98822.69
2023-05-05T03:44:09.592Z,98790.00
2023-05-05T03:46:41.129Z,98815.84
2023-05-05T03:49:15.529Z,98809.50
2023-05-05T03:51:46.193Z,98746.38
2023-05-05T03:54:19.638Z,98820.00
2023-05-05T03:56:48.838Z,98822.19
2023-05-05T03:59:17.898Z,98826.50
2023-05-05T04:04:39.099Z,98834.59
2023-05-05T04:07:11.463Z,98821.75
2023-05-05T04:09:53.018Z,98833.84
2023-05-05T04:12:30.067Z,98842.31
2023-05-05T04:15:08.338Z,98847.00
2023-05-05T04:17:45.832Z,98818.16
2023-05-05T04:20:34.549Z,98839.88
2023-05-05T04:23:11.990Z,98853.34
2023-05-05T04:25:45.706Z,98858.19
2023-05-05T04:28:23.648Z,98861.19
2023-05-05T04:30:59.609Z,98860.03
2023-05-05T04:33:30.899Z,98860.84
2023-05-05T04:36:02.826Z,98861.88
2023-05-05T04:38:40.163Z,98858.25
2023-05-05T04:41:14.930Z,98864.63
2023-05-05T04:43:52.177Z,98859.31
2023-05-05T04:46:25.204Z,98862.63
2023-05-05T04:48:58.869Z,98862.06
2023-05-05T04:51:32.269Z,98858.75
2023-05-05T04:54:02.779Z,98875.50
2023-05-05T04:56:39.707Z,98879.06
2023-05-05T04:59:07.785Z,98870.50
2023-05-05T05:01:39.666Z,98891.06
2023-05-05T05:04:10.548Z,98889.91
2023-05-05T05:06:44.297Z,98883.84
2023-05-05T05:09:14.284Z,98890.09
2023-05-05T05:11:43.892Z,98880.16
2023-05-05T05:14:22.322Z,98888.75
2023-05-05T05:16:54.960Z,98884.56
2023-05-05T05:19:28.891Z,98885.13
2023-05-05T05:22:04.276Z,98879.22
2023-05-05T05:24:38.770Z,98881.69
2023-05-05T05:27:19.934Z,98868.97
2023-05-05T05:29:53.281Z,98880.97
2023-05-05T05:32:36.329Z,98883.66
2023-05-05T05:35:16.933Z,98875.84
2023-05-05T05:37:51.810Z,98868.97
2023-05-05T05:40:33.850Z,98878.34
2023-05-05T05:43:10.288Z,98875.78
2023-05-05T05:45:42.330Z,98883.94
2023-05-05T05:48:17.186Z,98879.94
2023-05-05T05:50:51.017Z,98878.34
2023-05-05T05:53:28.008Z,98875.34
2023-05-05T05:56:02.566Z,98844.41
2023-05-05T05:58:48.418Z,98869.00
2023-05-05T06:01:28.238Z,98863.31
2023-05-05T06:04:07.314Z,98876.97
2023-05-05T06:06:48.719Z,98872.19
2023-05-05T06:09:26.385Z,98866.03
2023-05-05T06:12:02.572Z,98858.00
2023-05-05T06:14:31.574Z,98862.72
2023-05-05T06:17:06.976Z,98867.16
2023-05-05T06:19:47.510Z,98871.94
2023-05-05T06:22:27.786Z,98863.34
2023-05-05T06:25:12.703Z,98857.09
2023-05-05T06:27:44.326Z,98859.75
2023-05-05T06:30:17.157Z,98861.94
2023-05-05T06:32:54.112Z,98855.59
2023-05-05T06:35:27.722Z,98855.94
2023-05-05T06:40:43.415Z,98851.00
2023-05-05T06:43:22.488Z,98847.22
2023-05-05T06:46:03.919Z,98852.31
2023-05-05T06:48:48.906Z,98833.22
2023-05-05T06:51:27.907Z,98835.00
2023-05-05T06:53:56.605Z,98837.63
2023-05-05T06:56:26.867Z,98838.50
2023-05-05T07:01:48.581Z,98826.41
2023-05-05T07:04:18.292Z,98844.41
2023-05-05T07:06:46.829Z,98781.44
2023-05-05T07:09:17.684Z,98828.31
2023-05-05T07:11:48.432Z,98828.59
2023-05-05T07:14:27.685Z,98824.69
2023-05-05T07:16:58.675Z,98820.91
2023-05-05T07:22:20.273Z,98803.00
2023-05-05T07:25:03.096Z,98817.56
2023-05-05T07:27:40.767Z,98811.13
2023-05-05T07:30:16.563Z,98804.84
2023-05-05T07:33:01.611Z,98781.88
2023-05-05T07:35:41.668Z,98802.66
2023-05-05T07:38:16.826Z,98802.44
2023-05-05T07:40:47.985Z,98800.97
2023-05-05T07:43:26.895Z,98745.25
2023-05-05T07:46:00.910Z,98791.97
2023-05-05T07:48:33.679Z,98785.91
2023-05-05T07:51:07.798Z,98782.94
2023-05-05T07:53:38.174Z,98779.19
2023-05-05T07:56:09.143Z,98786.53
2023-05-05T07:58:40.281Z,98778.34
2023-05-05T08:01:15.732Z,98776.03
2023-05-05T08:03:45.068Z,98777.81
2023-05-05T08:06:22.168Z,98783.38
2023-05-05T08:08:57.321Z,98780.72
2023-05-05T08:11:34.501Z,98766.06
2023-05-05T08:14:05.690Z,98771.94
2023-05-05T08:16:35.186Z,98767.31
2023-05-05T08:19:14.544Z,98771.50
2023-05-05T08:22:01.211Z,98778.78
2023-05-05T08:24:45.850Z,98760.34
2023-05-05T08:27:28.842Z,98763.63
2023-05-05T08:30:02.437Z,98752.47
2023-05-05T08:32:33.510Z,98759.75
2023-05-05T08:35:12.352Z,98758.06
2023-05-05T08:37:43.213Z,98753.75
2023-05-05T08:40:20.631Z,98745.03
2023-05-05T08:42:54.466Z,98756.53
2023-05-05T08:45:33.696Z,98746.06
2023-05-05T08:48:04.459Z,98752.41
2023-05-05T08:50:41.176Z,98759.41
2023-05-05T08:53:39.213Z,98758.88
2023-05-05T08:56:09.229Z,98745.03
2023-05-05T08:58:44.713Z,98742.53
2023-05-05T09:01:15.860Z,98736.00
2023-05-05T09:03:52.679Z,98732.06
2023-05-05T09:06:29.954Z,98702.81
2023-05-05T09:09:10.958Z,98727.66
2023-05-05T09:11:48.708Z,98714.81
2023-05-05T09:17:05.610Z,98703.31
2023-05-05T09:19:39.120Z,98692.94
2023-05-05T09:22:10.520Z,98695.91
2023-05-05T09:24:46.640Z,98701.75
2023-05-05T09:27:37.886Z,98693.44
2023-05-05T09:30:12.388Z,98699.56
2023-05-05T09:32:54.745Z,98695.94
2023-05-05T09:35:29.527Z,98693.63
2023-05-05T09:38:17.874Z,98687.56
2023-05-05T09:40:56.889Z,98688.13
2023-05-05T09:43:35.454Z,98686.16
2023-05-05T09:46:15.387Z,98683.34
2023-05-05T09:48:48.211Z,98679.38
2023-05-05T09:51:35.215Z,98666.59
2023-05-05T09:54:11.315Z,98676.25
2023-05-05T09:56:45.419Z,98653.91
2023-05-05T09:59:21.728Z,98672.66
2023-05-05T10:01:52.732Z,98671.41
2023-05-05T10:04:43.419Z,98664.22
2023-05-05T10:07:28.036Z,98658.84
2023-05-05T10:09:58.793Z,98661.13
2023-05-05T10:12:34.140Z,98644.53
2023-05-05T10:15:05.949Z,98657.13
2023-05-05T10:17:47.880Z,98643.34
2023-05-05T10:20:44.415Z,98654.66
2023-05-05T10:23:24.754Z,98652.84
2023-05-05T10:26:02.435Z,98629.22
2023-05-05T10:28:38.639Z,98639.78
2023-05-05T10:31:25.109Z,98644.97
2023-05-05T10:34:09.606Z,98642.16
2023-05-05T10:36:45.620Z,98634.94
2023-05-05T10:39:28.013Z,98628.00
2023-05-05T10:42:06.908Z,98632.19
2023-05-05T10:44:37.178Z,98632.22
2023-05-05T10:47:19.344Z,98620.91
2023-05-05T10:50:32.822Z,98619.78
2023-05-05T10:53:54.081Z,98599.03
2023-05-05T10:56:35.253Z,98600.50
2023-05-05T10:59:07.042Z,98599.56
2023-05-05T11:01:37.676Z,98588.75
2023-05-05T11:04:30.208Z,98592.97
2023-05-05T11:07:15.289Z,98588.28
2023-05-05T11:10:07.876Z,98574.22
2023-05-05T11:13:33.283Z,98570.31
2023-05-05T11:16:03.711Z,98569.69
2023-05-05T11:18:37.812Z,98544.22
2023-05-05T11:21:22.655Z,98549.00
2023-05-05T11:23:56.123Z,98560.59
2023-05-05T11:27:01.949Z,98552.06
2023-05-05T11:30:13.356Z,98549.19
2023-05-05T11:32:47.082Z,98545.16
2023-05-05T11:38:05.597Z,98538.63
2023-05-05T11:40:38.621Z,98537.94
2023-05-05T11:43:08.756Z,98531.06
2023-05-05T11:45:39.584Z,98518.13
2023-05-05T11:48:34.322Z,98531.59
2023-05-05T11:51:09.474Z,98509.53
2023-05-05T11:54:08.089Z,98526.28
2023-05-05T11:56:41.577Z,98479.16
2023-05-05T11:59:14.478Z,98506.28
2023-05-05T12:01:49.173Z,98518.78
2023-05-05T12:04:22.389Z,98510.78
2023-05-05T12:06:58.718Z,98510.38
2023-05-05T12:09:28.222Z,98508.84
2023-05-05T12:12:05.529Z,98503.50
2023-05-05T12:14:34.980Z,98498.75
2023-05-05T12:17:11.597Z,98510.06
2023-05-05T12:19:52.841Z,98514.59
2023-05-05T12:22:29.896Z,98508.44
2023-05-05T12:25:09.390Z,98499.22
2023-05-05T12:27:52.307Z,98504.47
2023-05-05T12:30:31.969Z,98493.97
2023-05-05T12:33:11.527Z,98490.22
2023-05-05T12:35:58.256Z,98482.19
2023-05-05T12:38:31.143Z,98465.31
2023-05-05T12:41:02.119Z,98483.53
2023-05-05T12:43:42.065Z,98462.91
2023-05-05T12:46:18.649Z,98473.41
2023-05-05T12:49:08.088Z,98471.81
2023-05-05T12:52:00.989Z,98463.66
2023-05-05T12:54:43.444Z,98452.66
2023-05-05T12:57:16.722Z,98441.06
2023-05-05T12:59:58.045Z,98398.53
2023-05-05T13:02:37.188Z,98442.50
2023-05-05T13:05:15.577Z,98433.63
2023-05-05T13:07:56.523Z,98441.16
2023-05-05T13:10:30.717Z,98436.22
2023-05-05T13:13:07.331Z,98433.28
2023-05-05T13:15:41.076Z,98427.69
2023-05-05T13:18:19.275Z,98416.66
2023-05-05T13:23:31.757Z,98408.78
2023-05-05T13:26:11.071Z,98416.09
2023-05-05T13:28:53.853Z,98408.25
2023-05-05T13:31:24.159Z,98402.31
2023-05-05T13:33:57.173Z,98359.19
2023-05-05T13:36:29.644Z,98395.69
2023-05-05T13:39:03.024Z,98393.22
2023-05-05T13:41:33.540Z,98382.16
2023-05-05T13:44:13.418Z,98383.19
2023-05-05T13:46:58.579Z,98379.88
2023-05-05T13:49:31.268Z,98390.75
2023-05-05T13:52:07.128Z,98374.09
2023-05-05T13:54:39.456Z,98384.59
2023-05-05T13:57:15.720Z,98383.28
2023-05-05T13:59:52.041Z,98383.09
2023-05-05T14:02:27.489Z,98376.50
2023-05-05T14:05:01.753Z,98377.16
2023-05-05T14:07:33.704Z,98370.16
2023-05-05T14:10:14.376Z,98322.69
2023-05-05T14:12:44.392Z,98357.38
2023-05-05T14:15:22.551Z,98362.16
2023-05-05T14:17:54.198Z,98361.06
2023-05-05T14:20:30.646Z,98358.53
2023-05-05T14:23:01.917Z,98343.34
2023-05-05T14:25:35.924Z,98356.06
2023-05-05T14:28:12.645Z,98342.56
2023-05-05T14:30:49.533Z,98338.16
2023-05-05T14:33:18.192Z,98351.69
2023-05-05T14:35:49.434Z,98351.75
2023-05-05T14:38:20.200Z,98347.50
2023-05-05T14:40:52.488Z,98338.63
2023-05-05T14:43:36.465Z,98349.00
2023-05-05T14:46:10.252Z,98331.59
2023-05-05T14:48:39.598Z,98338.88
2023-05-05T14:51:13.328Z,98340.13
2023-05-05T14:53:43.838Z,98342.13
2023-05-05T14:56:18.399Z,98332.81
2023-05-05T14:58:52.931Z,98326.47
2023-05-05T15:01:33.049Z,98329.91
2023-05-05T15:04:10.681Z,98329.19
2023-05-05T15:06:44.691Z,98332.22
2023-05-05T15:09:22.636Z,98310.59
2023-05-05T15:11:50.684Z,98320.88
2023-05-05T15:14:21.417Z,98322.97
2023-05-05T15:16:55.369Z,98314.69
2023-05-05T15:19:26.785Z,98314.31
2023-05-05T15:21:57.676Z,98317.97
2023-05-05T15:24:30.982Z,98318.19
2023-05-05T15:27:06.263Z,98321.84
2023-05-05T15:29:36.731Z,98304.00
2023-05-05T15:32:06.558Z,98317.28
2023-05-05T15:34:35.024Z,98306.94
2023-05-05T15:37:11.812Z,98313.16
2023-05-05T15:39:40.806Z,98298.50
2023-05-05T15:42:14.511Z,98310.09
2023-05-05T15:44:49.446Z,98311.09
2023-05-05T15:47:24.479Z,98297.63
2023-05-05T15:49:55.567Z,98305.50
2023-05-05T15:52:27.086Z,98289.28
2023-05-05T15:57:46.917Z,98300.88
2023-05-05T16:00:21.672Z,98292.38
2023-05-05T16:02:52.710Z,98290.91
2023-05-05T16:05:26.664Z,98303.78
2023-05-05T16:07:59.564Z,98301.66
2023-05-05T16:10:28.306Z,98286.59
2023-05-05T16:13:04.714Z,98293.44
2023-05-05T16:15:35.410Z,98284.97
2023-05-05T16:18:07.058Z,98296.06
2023-05-05T16:20:37.201Z,98292.00
2023-05-05T16:23:08.859Z,98290.03
2023-05-05T16:25:41.695Z,98287.22
2023-05-05T16:28:16.048Z,98285.59
2023-05-05T16:30:49.005Z,98280.84
2023-05-05T16:33:21.695Z,98276.41
2023-05-05T16:35:52.175Z,98282.94
2023-05-05T16:38:31.597Z,98278.13
2023-05-05T16:41:01.338Z,98281.03
2023-05-05T16:43:38.128Z,98272.56
2023-05-05T16:46:10.551Z,98284.34
2023-05-05T16:48:50.284Z,98283.94
2023-05-05T16:51:22.838Z,98267.03
2023-05-05T16:53:51.440Z,98273.84
2023-05-05T16:59:11.805Z,98260.94
2023-05-05T17:01:52.822Z,98280.72
2023-05-05T17:04:27.489Z,98287.19
2023-05-05T17:07:07.568Z,98228.19
2023-05-05T17:09:38.216Z,98228.16
2023-05-05T17:12:08.793Z,98286.63
2023-05-05T17:14:46.249Z,98265.25
2023-05-05T17:17:24.521Z,98287.41
2023-05-05T17:19:53.689Z,98282.13
2023-05-05T17:22:24.664Z,98275.47
2023-05-05T17:25:12.376Z,98289.28
2023-05-05T17:27:46.471Z,98284.97
2023-05-05T17:30:18.892Z,98282.09
2023-05-05T17:32:49.985Z,98286.31
2023-05-05T17:35:23.854Z,98290.63
2023-05-05T17:37:54.490Z,98296.44
2023-05-05T17:40:28.612Z,98295.81
2023-05-05T17:43:01.510Z,98294.22
2023-05-05T17:45:31.809Z,98301.81
2023-05-05T17:48:01.780Z,98308.00
2023-05-05T17:50:32.742Z,98282.63
2023-05-05T17:53:02.686Z,98307.38
2023-05-05T17:55:35.979Z,98301.91
2023-05-05T17:58:06.156Z,98314.81
2023-05-05T18:00:35.445Z,98310.34
2023-05-05T18:03:04.261Z,98317.56
2023-05-05T18:05:37.257Z,98298.81
2023-05-05T18:08:09.743Z,98321.84
2023-05-05T18:10:41.374Z,98313.34
2023-05-05T18:13:12.093Z,98321.31
2023-05-05T18:15:48.238Z,98329.56
2023-05-05T18:18:18.174Z,98327.47
2023-05-05T18:20:48.745Z,98337.72
2023-05-05T18:23:19.782Z,98325.63
2023-05-05T18:25:54.440Z,98331.72
2023-05-05T18:28:23.933Z,98336.91
2023-05-05T18:30:55.866Z,98333.28
2023-05-05T18:36:16.283Z,98334.50
2023-05-05T18:38:54.972Z,98329.16
2023-05-05T18:41:32.285Z,98346.72
2023-05-05T18:44:00.376Z,98354.00
2023-05-05T18:46:40.776Z,98355.66
2023-05-05T18:49:11.213Z,98356.66
2023-05-05T18:51:43.748Z,98350.59
2023-05-05T18:54:21.240Z,98340.66
2023-05-05T18:56:58.613Z,98345.66
2023-05-05T18:59:36.213Z,98349.19
2023-05-05T19:02:08.151Z,98371.97
2023-05-05T19:04:45.276Z,98370.47
2023-05-05T19:07:33.692Z,98369.88
2023-05-05T19:10:05.805Z,98381.75
2023-05-05T19:12:36.147Z,98382.91
2023-05-05T19:15:14.333Z,98387.81
2023-05-05T19:17:46.248Z,98387.53
2023-05-05T19:20:16.052Z,98383.59
2023-05-05T19:22:52.554Z,98388.19
2023-05-05T19:25:20.418Z,98389.34
2023-05-05T19:30:36.113Z,98400.38
2023-05-05T19:35:51.835Z,98401.53
2023-05-05T19:38:33.850Z,98404.47
2023-05-05T19:41:13.711Z,98408.91
2023-05-05T19:43:48.558Z,98420.41
2023-05-05T19:46:20.724Z,98417.47
2023-05-05T19:48:58.777Z,98407.50
2023-05-05T19:51:36.133Z,98399.94
2023-05-05T19:54:06.499Z,98396.66
2023-05-05T19:56:44.246Z,98402.00
2023-05-05T19:59:23.647Z,98409.00
2023-05-05T20:02:01.834Z,98389.81
2023-05-05T20:04:35.476Z,98397.97
2023-05-05T20:07:17.789Z,98401.69
2023-05-05T20:09:54.829Z,98406.91
2023-05-05T20:12:37.140Z,98408.75
2023-05-05T20:15:10.949Z,98405.03
2023-05-05T20:17:40.252Z,98409.78
2023-05-05T20:20:13.817Z,98406.94
2023-05-05T20:22:52.318Z,98405.09
2023-05-05T20:25:30.702Z,98387.78
2023-05-05T20:30:47.150Z,98389.38
2023-05-05T20:33:20.215Z,98406.94
2023-05-05T20:35:51.972Z,98394.28
2023-05-05T20:38:21.163Z,98400.44
2023-05-05T20:40:56.115Z,98387.09
2023-05-05T20:43:47.723Z,98412.47
2023-05-05T20:46:22.440Z,98409.00
2023-05-05T20:48:52.255Z,98415.81
2023-05-05T20:51:20.483Z,98418.41
2023-05-05T20:56:37.066Z,98423.97
2023-05-05T21:01:52.742Z,98432.22
2023-05-05T21:04:28.272Z,98439.41
2023-05-05T21:07:01.148Z,98432.91
2023-05-05T21:09:33.086Z,98437.50
2023-05-05T21:12:03.705Z,98419.50
2023-05-05T21:14:46.911Z,98435.34
2023-05-05T21:17:23.755Z,98433.38
2023-05-05T21:20:00.261Z,98434.38
2023-05-05T21:22:30.722Z,98435.53
2023-05-05T21:25:27.000Z,98434.28
2023-05-05T21:27:55.227Z,98442.72
2023-05-05T21:33:20.351Z,98424.81
2023-05-05T21:35:56.428Z,98446.72
2023-05-05T21:38:34.160Z,98444.38
2023-05-05T21:41:21.275Z,98436.00
2023-05-05T21:43:54.888Z,98431.59
2023-05-05T21:46:31.603Z,98413.94
2023-05-05T21:49:00.273Z,98439.84
2023-05-05T21:51:31.234Z,98444.28
2023-05-05T21:54:14.643Z,98445.06
2023-05-05T21:56:51.142Z,98456.41
2023-05-05T21:59:21.220Z,98442.47
2023-05-05T22:01:58.174Z,98441.97
2023-05-05T22:04:28.694Z,98433.94
2023-05-05T22:06:56.603Z,98447.19
2023-05-05T22:09:34.932Z,98453.78
2023-05-05T22:12:04.080Z,98451.00
2023-05-05T22:14:34.756Z,98442.88
2023-05-05T22:17:06.818Z,98454.91
2023-05-05T22:19:37.616Z,98453.16
2023-05-05T22:22:09.207Z,98442.66
2023-05-05T22:24:44.155Z,98444.25
2023-05-05T22:27:17.524Z,98442.13
2023-05-05T22:29:52.736Z,98443.00
2023-05-05T22:32:27.205Z,98412.94
2023-05-05T22:35:04.705Z,98426.50
2023-05-05T22:37:39.070Z,98443.78
2023-05-05T22:40:18.311Z,98433.03
2023-05-05T22:43:02.691Z,98411.66
2023-05-05T22:45:37.085Z,98420.44
2023-05-05T22:48:09.082Z,98420.81
2023-05-05T22:50:40.187Z,98430.28
2023-05-05T22:53:15.485Z,98419.66
2023-05-05T22:55:50.060Z,98434.84
2023-05-05T22:58:21.802Z,98426.34
2023-05-05T23:00:55.424Z,98404.16
2023-05-05T23:03:30.917Z,98430.13
2023-05-05T23:06:02.420Z,98429.28
2023-05-05T23:08:32.715Z,98422.56
2023-05-05T23:11:03.263Z,98433.16
2023-05-05T23:13:33.703Z,98425.31
2023-05-05T23:16:07.317Z,98393.75
2023-05-05T23:18:44.488Z,98409.94
2023-05-05T23:21:22.950Z,98401.47
2023-05-05T23:23:53.914Z,98410.75
2023-05-05T23:26:32.438Z,98412.59
2023-05-05T23:29:05.537Z,98391.38
2023-05-05T23:31:36.863Z,98411.41
2023-05-05T23:34:09.564Z,98411.72
2023-05-05T23:36:50.976Z,98406.19
2023-05-05T23:39:32.739Z,98406.66
2023-05-05T23:42:06.737Z,98411.88
2023-05-05T23:44:42.847Z,98414.81
2023-05-05T23:47:18.228Z,98403.53
2023-05-05T23:49:49.288Z,98412.31
2023-05-05T23:52:19.447Z,98420.69
2023-05-05T23:54:53.266Z,98416.44
2023-05-05T23:57:26.838Z,98419.59
